sensor_id;sensor_type;location;lat;lon;timestamp;pressure;altitude;pressure_sealevel;temperature;humidity
36664;BME280;53333;51.976;20.144;2023-07-31T00:01:45;99548.94;;;20.35;59.42
36664;BME280;53333;51.976;20.144;2023-07-31T00:04:18;99545.41;;;20.35;59.59
36664;BME280;53333;51.976;20.144;2023-07-31T00:06:51;99549.94;;;20.34;59.90
36664;BME280;53333;51.976;20.144;2023-07-31T00:09:25;99550.97;;;20.33;60.26
36664;BME280;53333;51.976;20.144;2023-07-31T00:11:58;99548.56;;;20.30;60.24
36664;BME280;53333;51.976;20.144;2023-07-31T00:14:31;99550.25;;;20.31;60.14
36664;BME280;53333;51.976;20.144;2023-07-31T00:17:05;99563.66;;;20.32;60.34
36664;BME280;53333;51.976;20.144;2023-07-31T00:19:38;99563.66;;;20.32;60.27
36664;BME280;53333;51.976;20.144;2023-07-31T00:22:11;99552.81;;;20.32;60.53
36664;BME280;53333;51.976;20.144;2023-07-31T00:24:45;99556.53;;;20.31;60.29
36664;BME280;53333;51.976;20.144;2023-07-31T00:27:18;99555.50;;;20.32;60.36
36664;BME280;53333;51.976;20.144;2023-07-31T00:29:51;99554.53;;;20.33;60.49
36664;BME280;53333;51.976;20.144;2023-07-31T00:32:26;99558.22;;;20.32;60.58
36664;BME280;53333;51.976;20.144;2023-07-31T00:35:01;99558.53;;;20.29;60.50
36664;BME280;53333;51.976;20.144;2023-07-31T00:37:35;99550.56;;;20.28;60.83
36664;BME280;53333;51.976;20.144;2023-07-31T00:40:10;99557.16;;;20.25;60.78
36664;BME280;53333;51.976;20.144;2023-07-31T00:42:43;99556.31;;;20.25;60.98
36664;BME280;53333;51.976;20.144;2023-07-31T00:45:16;99548.31;;;20.23;60.99
36664;BME280;53333;51.976;20.144;2023-07-31T00:47:49;99558.28;;;20.23;61.02
36664;BME280;53333;51.976;20.144;2023-07-31T00:50:24;99563.72;;;20.23;61.13
36664;BME280;53333;51.976;20.144;2023-07-31T00:52:57;99557.28;;;20.24;61.27
36664;BME280;53333;51.976;20.144;2023-07-31T00:55:32;99568.84;;;20.26;61.05
36664;BME280;53333;51.976;20.144;2023-07-31T00:58:05;99568.00;;;20.25;61.43
36664;BME280;53333;51.976;20.144;2023-07-31T01:00:38;99579.81;;;20.24;61.46
36664;BME280;53333;51.976;20.144;2023-07-31T01:03:11;99575.59;;;20.22;61.34
36664;BME280;53333;51.976;20.144;2023-07-31T01:05:49;99573.97;;;20.29;60.86
36664;BME280;53333;51.976;20.144;2023-07-31T01:08:29;99586.16;;;20.15;61.39
36664;BME280;53333;51.976;20.144;2023-07-31T01:11:13;99588.75;;;20.07;61.73
36664;BME280;53333;51.976;20.144;2023-07-31T01:13:48;99584.66;;;20.03;62.40
36664;BME280;53333;51.976;20.144;2023-07-31T01:16:24;99593.09;;;20.00;62.71
36664;BME280;53333;51.976;20.144;2023-07-31T01:18:57;99578.84;;;19.98;62.30
36664;BME280;53333;51.976;20.144;2023-07-31T01:21:41;99585.09;;;19.98;62.39
36664;BME280;53333;51.976;20.144;2023-07-31T01:24:23;99579.13;;;19.94;62.59
36664;BME280;53333;51.976;20.144;2023-07-31T01:27:06;99582.84;;;19.93;62.72
36664;BME280;53333;51.976;20.144;2023-07-31T01:29:46;99578.56;;;19.91;62.79
36664;BME280;53333;51.976;20.144;2023-07-31T01:32:20;99586.84;;;19.89;63.36
36664;BME280;53333;51.976;20.144;2023-07-31T01:34:56;99587.84;;;19.88;63.24
36664;BME280;53333;51.976;20.144;2023-07-31T01:37:31;99592.09;;;19.91;63.42
36664;BME280;53333;51.976;20.144;2023-07-31T01:40:05;99600.09;;;19.92;63.08
36664;BME280;53333;51.976;20.144;2023-07-31T01:42:40;99595.53;;;19.93;63.53
36664;BME280;53333;51.976;20.144;2023-07-31T01:45:13;99612.78;;;19.92;63.29
36664;BME280;53333;51.976;20.144;2023-07-31T01:47:46;99603.25;;;19.88;63.48
36664;BME280;53333;51.976;20.144;2023-07-31T01:50:19;99608.13;;;19.84;63.35
36664;BME280;53333;51.976;20.144;2023-07-31T01:52:52;99597.72;;;19.80;63.61
36664;BME280;53333;51.976;20.144;2023-07-31T01:55:25;99601.84;;;19.74;63.60
36664;BME280;53333;51.976;20.144;2023-07-31T01:57:59;99599.59;;;19.69;64.16
36664;BME280;53333;51.976;20.144;2023-07-31T02:00:32;99604.75;;;19.63;64.10
36664;BME280;53333;51.976;20.144;2023-07-31T02:03:05;99598.72;;;19.59;64.05
36664;BME280;53333;51.976;20.144;2023-07-31T02:05:44;99596.31;;;19.56;64.62
36664;BME280;53333;51.976;20.144;2023-07-31T02:08:17;99595.75;;;19.52;64.78
36664;BME280;53333;51.976;20.144;2023-07-31T02:10:50;99593.91;;;19.53;64.59
36664;BME280;53333;51.976;20.144;2023-07-31T02:13:24;99591.06;;;19.64;63.81
36664;BME280;53333;51.976;20.144;2023-07-31T02:15:57;99594.31;;;19.68;63.22
36664;BME280;53333;51.976;20.144;2023-07-31T02:18:30;99592.75;;;19.55;63.77
36664;BME280;53333;51.976;20.144;2023-07-31T02:21:03;99597.47;;;19.53;63.91
36664;BME280;53333;51.976;20.144;2023-07-31T02:23:36;99599.63;;;19.50;64.47
36664;BME280;53333;51.976;20.144;2023-07-31T02:26:09;99592.66;;;19.47;64.30
36664;BME280;53333;51.976;20.144;2023-07-31T02:28:44;99597.06;;;19.48;64.77
36664;BME280;53333;51.976;20.144;2023-07-31T02:31:17;99602.63;;;19.47;64.36
36664;BME280;53333;51.976;20.144;2023-07-31T02:33:53;99605.19;;;19.48;64.40
36664;BME280;53333;51.976;20.144;2023-07-31T02:36:26;99606.03;;;19.49;64.69
36664;BME280;53333;51.976;20.144;2023-07-31T02:39:00;99611.31;;;19.50;64.35
36664;BME280;53333;51.976;20.144;2023-07-31T02:41:33;99610.47;;;19.50;64.50
36664;BME280;53333;51.976;20.144;2023-07-31T02:44:07;99611.31;;;19.50;64.15
36664;BME280;53333;51.976;20.144;2023-07-31T02:46:41;99611.31;;;19.50;64.32
36664;BME280;53333;51.976;20.144;2023-07-31T02:49:16;99618.75;;;19.48;63.91
36664;BME280;53333;51.976;20.144;2023-07-31T02:51:49;99621.97;;;19.62;63.50
36664;BME280;53333;51.976;20.144;2023-07-31T02:54:22;99620.13;;;19.52;63.71
36664;BME280;53333;51.976;20.144;2023-07-31T02:56:55;99623.13;;;19.49;63.65
36664;BME280;53333;51.976;20.144;2023-07-31T02:59:30;99621.44;;;19.48;63.49
36664;BME280;53333;51.976;20.144;2023-07-31T03:02:03;99617.84;;;19.48;63.44
36664;BME280;53333;51.976;20.144;2023-07-31T03:04:36;99629.41;;;19.59;63.15
36664;BME280;53333;51.976;20.144;2023-07-31T03:07:09;99633.25;;;19.47;63.06
36664;BME280;53333;51.976;20.144;2023-07-31T03:09:42;99623.72;;;19.43;63.08
36664;BME280;53333;51.976;20.144;2023-07-31T03:12:15;99634.81;;;19.40;63.15
36664;BME280;53333;51.976;20.144;2023-07-31T03:14:49;99633.28;;;19.37;63.53
36664;BME280;53333;51.976;20.144;2023-07-31T03:17:22;99631.56;;;19.36;63.12
36664;BME280;53333;51.976;20.144;2023-07-31T03:19:55;99632.41;;;19.37;63.50
36664;BME280;53333;51.976;20.144;2023-07-31T03:22:28;99636.00;;;19.37;63.53
36664;BME280;53333;51.976;20.144;2023-07-31T03:25:01;99632.25;;;19.38;63.42
36664;BME280;53333;51.976;20.144;2023-07-31T03:27:34;99643.97;;;19.39;63.05
36664;BME280;53333;51.976;20.144;2023-07-31T03:30:09;99630.44;;;19.39;62.95
36664;BME280;53333;51.976;20.144;2023-07-31T03:32:42;99633.97;;;19.39;63.09
36664;BME280;53333;51.976;20.144;2023-07-31T03:35:15;99639.25;;;19.41;62.94
36664;BME280;53333;51.976;20.144;2023-07-31T03:37:48;99648.06;;;19.43;62.79
36664;BME280;53333;51.976;20.144;2023-07-31T03:40:21;99646.25;;;19.44;62.68
36664;BME280;53333;51.976;20.144;2023-07-31T03:42:54;99648.06;;;19.43;62.64
36664;BME280;53333;51.976;20.144;2023-07-31T03:45:28;99654.38;;;19.44;62.45
36664;BME280;53333;51.976;20.144;2023-07-31T03:48:01;99655.22;;;19.44;62.25
36664;BME280;53333;51.976;20.144;2023-07-31T03:50:35;99665.06;;;19.45;62.01
36664;BME280;53333;51.976;20.144;2023-07-31T03:53:07;99650.50;;;19.46;62.27
36664;BME280;53333;51.976;20.144;2023-07-31T03:55:40;99654.94;;;19.47;61.92
36664;BME280;53333;51.976;20.144;2023-07-31T03:58:13;99656.78;;;19.47;62.42
36664;BME280;53333;51.976;20.144;2023-07-31T04:00:48;99664.91;;;19.47;61.72
36664;BME280;53333;51.976;20.144;2023-07-31T04:03:21;99663.19;;;19.46;61.69
36664;BME280;53333;51.976;20.144;2023-07-31T04:05:54;99675.88;;;19.45;61.86
36664;BME280;53333;51.976;20.144;2023-07-31T04:08:27;99666.88;;;19.45;62.14
36664;BME280;53333;51.976;20.144;2023-07-31T04:11:00;99675.16;;;19.43;62.05
36664;BME280;53333;51.976;20.144;2023-07-31T04:13:33;99670.91;;;19.40;62.01
36664;BME280;53333;51.976;20.144;2023-07-31T04:16:07;99677.31;;;19.39;61.91
36664;BME280;53333;51.976;20.144;2023-07-31T04:18:40;99668.34;;;19.39;62.01
36664;BME280;53333;51.976;20.144;2023-07-31T04:21:12;99671.03;;;19.39;62.28
36664;BME280;53333;51.976;20.144;2023-07-31T04:23:45;99672.88;;;19.38;61.92
36664;BME280;53333;51.976;20.144;2023-07-31T04:26:18;99674.59;;;19.39;62.11
36664;BME280;53333;51.976;20.144;2023-07-31T04:28:51;99672.03;;;19.38;61.75
36664;BME280;53333;51.976;20.144;2023-07-31T04:31:25;99677.44;;;19.38;62.09
36664;BME280;53333;51.976;20.144;2023-07-31T04:33:58;99681.00;;;19.38;62.01
36664;BME280;53333;51.976;20.144;2023-07-31T04:36:31;99684.59;;;19.39;61.72
36664;BME280;53333;51.976;20.144;2023-07-31T04:39:04;99680.84;;;19.40;61.49
36664;BME280;53333;51.976;20.144;2023-07-31T04:41:37;99681.44;;;19.44;61.48
36664;BME280;53333;51.976;20.144;2023-07-31T04:44:10;99687.72;;;19.44;61.13
36664;BME280;53333;51.976;20.144;2023-07-31T04:46:44;99686.88;;;19.44;60.83
36664;BME280;53333;51.976;20.144;2023-07-31T04:49:17;99686.72;;;19.45;60.92
36664;BME280;53333;51.976;20.144;2023-07-31T04:51:50;99691.13;;;19.46;60.59
36664;BME280;53333;51.976;20.144;2023-07-31T04:54:23;99692.84;;;19.47;60.48
36664;BME280;53333;51.976;20.144;2023-07-31T04:56:58;99691.13;;;19.46;60.13
36664;BME280;53333;51.976;20.144;2023-07-31T04:59:31;99692.97;;;19.46;60.10
36664;BME280;53333;51.976;20.144;2023-07-31T05:02:07;99685.84;;;19.45;60.15
36664;BME280;53333;51.976;20.144;2023-07-31T05:04:40;99683.28;;;19.43;60.23
36664;BME280;53333;51.976;20.144;2023-07-31T05:07:13;99695.84;;;19.44;59.91
36664;BME280;53333;51.976;20.144;2023-07-31T05:09:47;99690.41;;;19.44;60.27
36664;BME280;53333;51.976;20.144;2023-07-31T05:12:19;99685.28;;;19.41;60.05
36664;BME280;53333;51.976;20.144;2023-07-31T05:14:52;99687.84;;;19.42;60.16
36664;BME280;53333;51.976;20.144;2023-07-31T05:17:27;99691.53;;;19.41;60.25
36664;BME280;53333;51.976;20.144;2023-07-31T05:19:59;99692.56;;;19.40;60.08
36664;BME280;53333;51.976;20.144;2023-07-31T05:22:32;99693.41;;;19.41;59.95
36664;BME280;53333;51.976;20.144;2023-07-31T05:25:06;99709.38;;;19.44;60.08
36664;BME280;53333;51.976;20.144;2023-07-31T05:27:39;99697.69;;;19.44;59.78
36664;BME280;53333;51.976;20.144;2023-07-31T05:30:12;99703.53;;;19.49;60.06
36664;BME280;53333;51.976;20.144;2023-07-31T05:32:46;99698.66;;;19.52;59.73
36664;BME280;53333;51.976;20.144;2023-07-31T05:35:19;99701.78;;;19.57;59.34
36664;BME280;53333;51.976;20.144;2023-07-31T05:37:59;99708.66;;;19.62;59.28
36664;BME280;53333;51.976;20.144;2023-07-31T05:40:46;99707.06;;;19.69;58.93
36664;BME280;53333;51.976;20.144;2023-07-31T05:43:19;99704.78;;;19.74;59.01
36664;BME280;53333;51.976;20.144;2023-07-31T05:45:51;99706.81;;;19.82;58.84
36664;BME280;53333;51.976;20.144;2023-07-31T05:48:33;99705.22;;;19.89;58.50
36664;BME280;53333;51.976;20.144;2023-07-31T05:51:09;99710.75;;;19.97;58.35
36664;BME280;53333;51.976;20.144;2023-07-31T05:53:42;99712.75;;;20.05;58.27
36664;BME280;53333;51.976;20.144;2023-07-31T05:56:15;99711.00;;;20.23;58.23
36664;BME280;53333;51.976;20.144;2023-07-31T05:58:48;99713.25;;;20.18;57.88
36664;BME280;53333;51.976;20.144;2023-07-31T06:01:22;99713.84;;;20.22;57.80
36664;BME280;53333;51.976;20.144;2023-07-31T06:03:56;99715.53;;;20.23;58.20
36664;BME280;53333;51.976;20.144;2023-07-31T06:06:29;99714.41;;;20.25;57.95
36664;BME280;53333;51.976;20.144;2023-07-31T06:09:02;99724.41;;;20.25;57.69
36664;BME280;53333;51.976;20.144;2023-07-31T06:11:35;99711.13;;;20.22;57.59
36664;BME280;53333;51.976;20.144;2023-07-31T06:14:08;99719.28;;;20.22;57.82
36664;BME280;53333;51.976;20.144;2023-07-31T06:16:41;99718.69;;;20.28;58.06
36664;BME280;53333;51.976;20.144;2023-07-31T06:19:17;99719.78;;;20.35;57.86
36664;BME280;53333;51.976;20.144;2023-07-31T06:21:50;99733.00;;;20.48;57.76
36664;BME280;53333;51.976;20.144;2023-07-31T06:24:23;99730.78;;;20.61;57.41
36664;BME280;53333;51.976;20.144;2023-07-31T06:26:55;99734.06;;;20.75;56.80
36664;BME280;53333;51.976;20.144;2023-07-31T06:29:29;99728.91;;;20.99;56.78
36664;BME280;53333;51.976;20.144;2023-07-31T06:32:02;99732.50;;;21.00;55.98
36664;BME280;53333;51.976;20.144;2023-07-31T06:34:37;99743.97;;;21.12;56.00
36664;BME280;53333;51.976;20.144;2023-07-31T06:37:10;99737.09;;;21.17;55.61
36664;BME280;53333;51.976;20.144;2023-07-31T06:39:43;99741.03;;;21.23;55.42
36664;BME280;53333;51.976;20.144;2023-07-31T06:42:16;99744.72;;;21.32;55.51
36664;BME280;53333;51.976;20.144;2023-07-31T06:44:49;99733.16;;;21.48;55.32
36664;BME280;53333;51.976;20.144;2023-07-31T06:47:22;99738.44;;;21.67;55.31
36664;BME280;53333;51.976;20.144;2023-07-31T06:49:57;99734.31;;;21.81;54.40
36664;BME280;53333;51.976;20.144;2023-07-31T06:52:54;99737.47;;;21.94;54.24
36664;BME280;53333;51.976;20.144;2023-07-31T06:55:27;99729.91;;;22.06;54.17
36664;BME280;53333;51.976;20.144;2023-07-31T06:58:00;99733.69;;;22.13;53.49
36664;BME280;53333;51.976;20.144;2023-07-31T07:00:33;99734.53;;;22.14;52.93
36664;BME280;53333;51.976;20.144;2023-07-31T07:03:06;99734.38;;;22.16;52.94
36664;BME280;53333;51.976;20.144;2023-07-31T07:05:40;99728.22;;;22.05;52.81
36664;BME280;53333;51.976;20.144;2023-07-31T07:08:13;99723.41;;;21.99;53.03
36664;BME280;53333;51.976;20.144;2023-07-31T07:10:46;99722.50;;;22.17;52.94
36664;BME280;53333;51.976;20.144;2023-07-31T07:13:19;99720.44;;;22.37;53.17
36664;BME280;53333;51.976;20.144;2023-07-31T07:15:52;99721.38;;;22.54;52.40
36664;BME280;53333;51.976;20.144;2023-07-31T07:18:25;99719.22;;;22.65;51.83
36664;BME280;53333;51.976;20.144;2023-07-31T07:21:00;99718.91;;;22.77;51.47
36664;BME280;53333;51.976;20.144;2023-07-31T07:23:34;99718.41;;;22.81;51.20
36664;BME280;53333;51.976;20.144;2023-07-31T07:26:07;99714.84;;;22.81;51.01
36664;BME280;53333;51.976;20.144;2023-07-31T07:28:39;99716.88;;;22.71;50.83
36664;BME280;53333;51.976;20.144;2023-07-31T07:31:15;99711.59;;;22.69;50.71
36664;BME280;53333;51.976;20.144;2023-07-31T07:33:48;99713.47;;;22.77;50.83
36664;BME280;53333;51.976;20.144;2023-07-31T07:36:23;99706.88;;;22.88;50.17
36664;BME280;53333;51.976;20.144;2023-07-31T07:38:55;99714.22;;;22.95;50.35
36664;BME280;53333;51.976;20.144;2023-07-31T07:41:29;99719.06;;;23.10;50.15
36664;BME280;53333;51.976;20.144;2023-07-31T07:44:02;99711.06;;;23.25;49.23
36664;BME280;53333;51.976;20.144;2023-07-31T07:46:35;99717.75;;;23.38;47.76
36664;BME280;53333;51.976;20.144;2023-07-31T07:49:08;99717.25;;;23.51;46.57
36664;BME280;53333;51.976;20.144;2023-07-31T07:51:43;99714.19;;;23.63;46.71
36664;BME280;53333;51.976;20.144;2023-07-31T07:54:16;99710.09;;;23.75;46.81
36664;BME280;53333;51.976;20.144;2023-07-31T07:56:49;99711.16;;;23.90;46.78
36664;BME280;53333;51.976;20.144;2023-07-31T07:59:22;99714.16;;;24.12;45.78
36664;BME280;53333;51.976;20.144;2023-07-31T08:01:55;99717.41;;;24.24;45.10
36664;BME280;53333;51.976;20.144;2023-07-31T08:04:29;99714.31;;;24.27;45.31
36664;BME280;53333;51.976;20.144;2023-07-31T08:07:03;99710.03;;;24.33;45.66
36664;BME280;53333;51.976;20.144;2023-07-31T08:09:36;99712.56;;;24.42;44.76
36664;BME280;53333;51.976;20.144;2023-07-31T08:12:10;99709.28;;;24.55;44.87
36664;BME280;53333;51.976;20.144;2023-07-31T08:14:42;99713.88;;;24.63;45.39
36664;BME280;53333;51.976;20.144;2023-07-31T08:17:15;99718.06;;;24.82;44.77
36664;BME280;53333;51.976;20.144;2023-07-31T08:19:48;99717.44;;;25.03;43.66
36664;BME280;53333;51.976;20.144;2023-07-31T08:22:23;99711.03;;;25.19;44.30
36664;BME280;53333;51.976;20.144;2023-07-31T08:24:56;99715.03;;;25.40;43.30
36664;BME280;53333;51.976;20.144;2023-07-31T08:27:29;99715.47;;;25.51;42.40
36664;BME280;53333;51.976;20.144;2023-07-31T08:30:02;99719.78;;;25.46;42.13
36664;BME280;53333;51.976;20.144;2023-07-31T08:32:35;99726.03;;;25.31;42.01
36664;BME280;53333;51.976;20.144;2023-07-31T08:35:08;99730.16;;;25.19;42.02
36664;BME280;53333;51.976;20.144;2023-07-31T08:37:42;99723.13;;;25.25;41.77
36664;BME280;53333;51.976;20.144;2023-07-31T08:40:15;99733.84;;;25.34;41.21
36664;BME280;53333;51.976;20.144;2023-07-31T08:42:49;99726.03;;;25.54;42.10
36664;BME280;53333;51.976;20.144;2023-07-31T08:45:22;99728.53;;;25.64;40.93
36664;BME280;53333;51.976;20.144;2023-07-31T08:47:55;99728.66;;;25.86;40.27
36664;BME280;53333;51.976;20.144;2023-07-31T08:50:29;99730.38;;;26.25;39.60
36664;BME280;53333;51.976;20.144;2023-07-31T08:53:03;99724.53;;;26.88;39.22
36664;BME280;53333;51.976;20.144;2023-07-31T08:55:37;99722.56;;;27.18;38.65
36664;BME280;53333;51.976;20.144;2023-07-31T08:58:12;99713.13;;;27.85;37.36
36664;BME280;53333;51.976;20.144;2023-07-31T09:00:46;99716.81;;;28.56;35.46
36664;BME280;53333;51.976;20.144;2023-07-31T09:03:23;99718.13;;;29.08;34.69
36664;BME280;53333;51.976;20.144;2023-07-31T09:05:57;99714.19;;;29.24;33.84
36664;BME280;53333;51.976;20.144;2023-07-31T09:08:32;99711.28;;;28.84;33.83
36664;BME280;53333;51.976;20.144;2023-07-31T09:11:05;99711.50;;;28.19;34.31
36664;BME280;53333;51.976;20.144;2023-07-31T09:13:40;99712.63;;;27.53;34.80
36664;BME280;53333;51.976;20.144;2023-07-31T09:16:13;99717.53;;;27.00;35.83
36664;BME280;53333;51.976;20.144;2023-07-31T09:18:56;99720.19;;;26.49;36.43
36664;BME280;53333;51.976;20.144;2023-07-31T09:21:30;99723.47;;;25.99;36.91
36664;BME280;53333;51.976;20.144;2023-07-31T09:24:04;99717.41;;;25.66;37.96
36664;BME280;53333;51.976;20.144;2023-07-31T09:26:37;99707.50;;;25.65;37.86
36664;BME280;53333;51.976;20.144;2023-07-31T09:29:19;99721.22;;;26.18;37.21
36664;BME280;53333;51.976;20.144;2023-07-31T09:31:53;99711.59;;;26.81;36.42
36664;BME280;53333;51.976;20.144;2023-07-31T09:34:30;99722.22;;;27.43;35.39
36664;BME280;53333;51.976;20.144;2023-07-31T09:37:09;99714.69;;;28.16;33.86
36664;BME280;53333;51.976;20.144;2023-07-31T09:39:48;99713.84;;;28.92;32.59
36664;BME280;53333;51.976;20.144;2023-07-31T09:42:26;99718.25;;;29.42;31.83
36664;BME280;53333;51.976;20.144;2023-07-31T09:45:07;99719.09;;;29.35;31.56
36664;BME280;53333;51.976;20.144;2023-07-31T09:47:46;99706.84;;;29.58;31.76
36664;BME280;53333;51.976;20.144;2023-07-31T09:50:22;99710.88;;;29.62;32.24
36664;BME280;53333;51.976;20.144;2023-07-31T09:52:55;99722.09;;;29.67;31.64
36664;BME280;53333;51.976;20.144;2023-07-31T09:55:30;99714.94;;;29.86;30.93
36664;BME280;53333;51.976;20.144;2023-07-31T09:58:04;99706.06;;;29.91;30.53
36664;BME280;53333;51.976;20.144;2023-07-31T10:00:37;99713.25;;;29.92;30.44
36664;BME280;53333;51.976;20.144;2023-07-31T10:03:11;99712.38;;;30.18;29.83
36664;BME280;53333;51.976;20.144;2023-07-31T10:05:46;99703.47;;;30.30;29.74
36664;BME280;53333;51.976;20.144;2023-07-31T10:08:28;99711.09;;;30.34;30.07
36664;BME280;53333;51.976;20.144;2023-07-31T10:11:04;99718.50;;;30.40;29.70
36664;BME280;53333;51.976;20.144;2023-07-31T10:13:41;99700.44;;;30.65;29.02
36664;BME280;53333;51.976;20.144;2023-07-31T10:16:15;99710.16;;;30.74;29.21
36664;BME280;53333;51.976;20.144;2023-07-31T10:18:49;99710.72;;;30.96;29.04
36664;BME280;53333;51.976;20.144;2023-07-31T10:21:23;99705.47;;;30.74;29.07
36664;BME280;53333;51.976;20.144;2023-07-31T10:23:56;99702.03;;;30.07;30.04
36664;BME280;53333;51.976;20.144;2023-07-31T10:26:31;99706.00;;;29.44;31.44
36664;BME280;53333;51.976;20.144;2023-07-31T10:29:05;99702.00;;;28.85;31.71
36664;BME280;53333;51.976;20.144;2023-07-31T10:31:39;99703.00;;;28.36;32.07
36664;BME280;53333;51.976;20.144;2023-07-31T10:34:13;99702.59;;;27.89;32.49
36664;BME280;53333;51.976;20.144;2023-07-31T10:36:46;99711.56;;;27.48;32.91
36664;BME280;53333;51.976;20.144;2023-07-31T10:39:33;99704.09;;;27.05;32.92
36664;BME280;53333;51.976;20.144;2023-07-31T10:42:12;99696.38;;;26.64;33.82
36664;BME280;53333;51.976;20.144;2023-07-31T10:44:48;99701.88;;;26.34;34.93
36664;BME280;53333;51.976;20.144;2023-07-31T10:47:21;99702.16;;;26.09;35.14
36664;BME280;53333;51.976;20.144;2023-07-31T10:53:00;99692.97;;;25.64;35.71
36664;BME280;53333;51.976;20.144;2023-07-31T10:55:38;99695.00;;;25.47;36.30
36664;BME280;53333;51.976;20.144;2023-07-31T10:58:14;99688.41;;;25.33;36.18
36664;BME280;53333;51.976;20.144;2023-07-31T11:00:55;99692.03;;;25.34;37.00
36664;BME280;53333;51.976;20.144;2023-07-31T11:03:41;99690.13;;;25.34;37.09
36664;BME280;53333;51.976;20.144;2023-07-31T11:06:15;99685.50;;;25.35;36.76
36664;BME280;53333;51.976;20.144;2023-07-31T11:08:50;99682.59;;;25.36;36.88
36664;BME280;53333;51.976;20.144;2023-07-31T11:11:23;99689.41;;;25.41;37.47
36664;BME280;53333;51.976;20.144;2023-07-31T11:13:58;99682.31;;;25.54;37.37
36664;BME280;53333;51.976;20.144;2023-07-31T11:16:30;99688.09;;;25.74;37.47
36664;BME280;53333;51.976;20.144;2023-07-31T11:19:08;99693.22;;;25.92;36.85
36664;BME280;53333;51.976;20.144;2023-07-31T11:21:41;99685.34;;;25.98;36.54
36664;BME280;53333;51.976;20.144;2023-07-31T11:24:14;99686.19;;;25.98;36.72
36664;BME280;53333;51.976;20.144;2023-07-31T11:26:50;99682.25;;;26.01;36.72
36664;BME280;53333;51.976;20.144;2023-07-31T11:29:27;99677.88;;;25.91;36.49
36664;BME280;53333;51.976;20.144;2023-07-31T11:32:00;99686.53;;;25.80;36.19
36664;BME280;53333;51.976;20.144;2023-07-31T11:34:51;99680.34;;;25.63;36.05
36664;BME280;53333;51.976;20.144;2023-07-31T11:37:23;99690.91;;;25.43;36.17
36664;BME280;53333;51.976;20.144;2023-07-31T11:39:59;99679.56;;;25.31;36.47
36664;BME280;53333;51.976;20.144;2023-07-31T11:42:32;99684.31;;;25.06;37.22
36664;BME280;53333;51.976;20.144;2023-07-31T11:45:08;99680.28;;;24.94;37.67
36664;BME280;53333;51.976;20.144;2023-07-31T11:47:42;99676.94;;;24.83;37.56
36664;BME280;53333;51.976;20.144;2023-07-31T11:50:15;99672.22;;;24.69;37.62
36664;BME280;53333;51.976;20.144;2023-07-31T11:52:49;99664.63;;;24.56;38.57
36664;BME280;53333;51.976;20.144;2023-07-31T11:55:23;99662.22;;;24.53;38.69
36664;BME280;53333;51.976;20.144;2023-07-31T11:57:57;99662.22;;;24.53;38.23
36664;BME280;53333;51.976;20.144;2023-07-31T12:00:33;99651.28;;;24.61;38.63
36664;BME280;53333;51.976;20.144;2023-07-31T12:03:06;99663.28;;;24.83;37.83
36664;BME280;53333;51.976;20.144;2023-07-31T12:05:39;99663.31;;;25.07;38.28
36664;BME280;53333;51.976;20.144;2023-07-31T12:08:12;99662.63;;;25.36;37.36
36664;BME280;53333;51.976;20.144;2023-07-31T12:10:46;99647.34;;;25.65;36.74
36664;BME280;53333;51.976;20.144;2023-07-31T12:13:21;99645.34;;;25.97;36.36
36664;BME280;53333;51.976;20.144;2023-07-31T12:15:57;99651.50;;;26.28;36.41
36664;BME280;53333;51.976;20.144;2023-07-31T12:18:34;99645.63;;;26.46;35.17
36664;BME280;53333;51.976;20.144;2023-07-31T12:21:08;99647.69;;;26.59;35.67
36664;BME280;53333;51.976;20.144;2023-07-31T12:23:44;99641.53;;;26.72;35.09
36664;BME280;53333;51.976;20.144;2023-07-31T12:26:17;99636.84;;;26.66;34.73
36664;BME280;53333;51.976;20.144;2023-07-31T12:28:50;99636.16;;;26.64;35.04
36664;BME280;53333;51.976;20.144;2023-07-31T12:31:27;99630.59;;;26.57;35.08
36664;BME280;53333;51.976;20.144;2023-07-31T12:34:01;99630.78;;;26.56;35.25
36664;BME280;53333;51.976;20.144;2023-07-31T12:36:34;99633.06;;;26.52;35.76
36664;BME280;53333;51.976;20.144;2023-07-31T12:39:08;99614.22;;;26.42;35.13
36664;BME280;53333;51.976;20.144;2023-07-31T12:41:41;99616.75;;;26.29;35.43
36664;BME280;53333;51.976;20.144;2023-07-31T12:44:14;99616.28;;;26.25;36.08
36664;BME280;53333;51.976;20.144;2023-07-31T12:46:48;99611.84;;;26.24;35.83
36664;BME280;53333;51.976;20.144;2023-07-31T12:49:21;99613.84;;;26.16;35.77
36664;BME280;53333;51.976;20.144;2023-07-31T12:51:55;99598.94;;;26.03;36.33
36664;BME280;53333;51.976;20.144;2023-07-31T12:54:27;99601.28;;;25.91;35.54
36664;BME280;53333;51.976;20.144;2023-07-31T12:57:00;99599.19;;;25.79;35.65
36664;BME280;53333;51.976;20.144;2023-07-31T12:59:35;99596.84;;;25.76;36.10
36664;BME280;53333;51.976;20.144;2023-07-31T13:02:09;99590.59;;;25.67;35.97
36664;BME280;53333;51.976;20.144;2023-07-31T13:04:42;99582.38;;;25.52;36.35
36664;BME280;53333;51.976;20.144;2023-07-31T13:07:15;99589.88;;;25.35;36.55
36664;BME280;53333;51.976;20.144;2023-07-31T13:09:48;99586.34;;;25.26;36.66
36664;BME280;53333;51.976;20.144;2023-07-31T13:12:21;99588.41;;;25.01;37.09
36664;BME280;53333;51.976;20.144;2023-07-31T13:14:54;99586.66;;;24.85;37.42
36664;BME280;53333;51.976;20.144;2023-07-31T13:17:28;99581.97;;;24.71;37.74
36664;BME280;53333;51.976;20.144;2023-07-31T13:20:02;99574.19;;;24.59;37.95
36664;BME280;53333;51.976;20.144;2023-07-31T13:22:35;99573.69;;;24.56;38.38
36664;BME280;53333;51.976;20.144;2023-07-31T13:25:08;99576.25;;;24.57;38.38
36664;BME280;53333;51.976;20.144;2023-07-31T13:27:41;99564.06;;;24.68;38.44
36664;BME280;53333;51.976;20.144;2023-07-31T13:30:14;99562.13;;;24.77;38.23